sensor_id;sensor_type;location;lat;lon;timestamp;P1;durP1;ratioP1;P2;durP2;ratioP2
3261;SDS011;1643;47.746;9.000;2022-12-18T00:02:14;43.87;;;21.60;;
3261;SDS011;1643;47.746;9.000;2022-12-18T00:04:40;37.50;;;20.83;;
3261;SDS011;1643;47.746;9.000;2022-12-18T00:07:05;38.50;;;21.20;;
3261;SDS011;1643;47.746;9.000;2022-12-18T00:09:31;42.13;;;21.57;;
3261;SDS011;1643;47.746;9.000;2022-12-18T00:11:57;37.40;;;21.10;;
3261;SDS011;1643;47.746;9.000;2022-12-18T00:14:22;40.30;;;20.47;;
3261;SDS011;1643;47.746;9.000;2022-12-18T00:16:48;41.83;;;20.37;;
3261;SDS011;1643;47.746;9.000;2022-12-18T00:19:14;39.53;;;19.63;;
3261;SDS011;1643;47.746;9.000;2022-12-18T00:21:40;44.53;;;20.80;;
3261;SDS011;1643;47.746;9.000;2022-12-18T00:24:07;42.10;;;21.33;;
3261;SDS011;1643;47.746;9.000;2022-12-18T00:26:34;42.43;;;21.83;;
3261;SDS011;1643;47.746;9.000;2022-12-18T00:29:01;43.87;;;20.80;;
3261;SDS011;1643;47.746;9.000;2022-12-18T00:31:36;37.70;;;20.47;;
3261;SDS011;1643;47.746;9.000;2022-12-18T00:34:03;41.30;;;19.73;;
3261;SDS011;1643;47.746;9.000;2022-12-18T00:36:30;40.20;;;20.10;;
3261;SDS011;1643;47.746;9.000;2022-12-18T00:38:58;45.87;;;23.03;;
3261;SDS011;1643;47.746;9.000;2022-12-18T00:41:26;42.10;;;20.60;;
3261;SDS011;1643;47.746;9.000;2022-12-18T00:44:11;36.23;;;19.20;;
3261;SDS011;1643;47.746;9.000;2022-12-18T00:46:39;47.87;;;21.93;;
3261;SDS011;1643;47.746;9.000;2022-12-18T00:49:05;41.20;;;20.40;;
3261;SDS011;1643;47.746;9.000;2022-12-18T00:51:31;36.83;;;19.63;;
3261;SDS011;1643;47.746;9.000;2022-12-18T00:53:56;42.90;;;22.27;;
3261;SDS011;1643;47.746;9.000;2022-12-18T00:56:22;41.97;;;20.10;;
3261;SDS011;1643;47.746;9.000;2022-12-18T00:58:49;46.97;;;22.37;;
3261;SDS011;1643;47.746;9.000;2022-12-18T01:01:15;46.30;;;19.97;;
3261;SDS011;1643;47.746;9.000;2022-12-18T01:03:41;40.80;;;21.07;;
3261;SDS011;1643;47.746;9.000;2022-12-18T01:06:07;39.27;;;19.33;;
3261;SDS011;1643;47.746;9.000;2022-12-18T01:08:35;40.57;;;20.63;;
3261;SDS011;1643;47.746;9.000;2022-12-18T01:11:06;37.00;;;19.83;;
3261;SDS011;1643;47.746;9.000;2022-12-18T01:13:34;47.00;;;22.63;;
3261;SDS011;1643;47.746;9.000;2022-12-18T01:15:59;44.57;;;23.20;;
3261;SDS011;1643;47.746;9.000;2022-12-18T01:18:25;38.73;;;20.97;;
3261;SDS011;1643;47.746;9.000;2022-12-18T01:20:50;43.73;;;20.67;;
3261;SDS011;1643;47.746;9.000;2022-12-18T01:23:16;39.53;;;20.30;;
3261;SDS011;1643;47.746;9.000;2022-12-18T01:25:42;41.43;;;21.63;;
3261;SDS011;1643;47.746;9.000;2022-12-18T01:28:07;45.53;;;21.73;;
3261;SDS011;1643;47.746;9.000;2022-12-18T01:30:33;37.00;;;19.80;;
3261;SDS011;1643;47.746;9.000;2022-12-18T01:32:58;38.27;;;19.20;;
3261;SDS011;1643;47.746;9.000;2022-12-18T01:35:24;41.33;;;20.83;;
3261;SDS011;1643;47.746;9.000;2022-12-18T01:37:53;46.67;;;21.87;;
3261;SDS011;1643;47.746;9.000;2022-12-18T01:40:19;43.70;;;20.30;;
3261;SDS011;1643;47.746;9.000;2022-12-18T01:42:47;36.63;;;19.13;;
3261;SDS011;1643;47.746;9.000;2022-12-18T01:48:02;35.43;;;20.30;;
3261;SDS011;1643;47.746;9.000;2022-12-18T01:50:40;43.40;;;21.20;;
3261;SDS011;1643;47.746;9.000;2022-12-18T01:55:40;39.50;;;19.90;;
3261;SDS011;1643;47.746;9.000;2022-12-18T01:58:10;36.70;;;19.50;;
3261;SDS011;1643;47.746;9.000;2022-12-18T02:00:35;36.70;;;19.40;;
3261;SDS011;1643;47.746;9.000;2022-12-18T02:03:01;48.10;;;20.60;;
3261;SDS011;1643;47.746;9.000;2022-12-18T02:08:12;47.20;;;19.63;;
3261;SDS011;1643;47.746;9.000;2022-12-18T02:16:25;42.50;;;21.20;;
3261;SDS011;1643;47.746;9.000;2022-12-18T02:19:00;38.10;;;21.70;;
3261;SDS011;1643;47.746;9.000;2022-12-18T02:21:40;34.33;;;18.40;;
3261;SDS011;1643;47.746;9.000;2022-12-18T02:26:59;44.00;;;20.97;;
3261;SDS011;1643;47.746;9.000;2022-12-18T02:29:31;35.70;;;18.20;;
3261;SDS011;1643;47.746;9.000;2022-12-18T02:32:02;42.53;;;22.00;;
3261;SDS011;1643;47.746;9.000;2022-12-18T02:34:31;41.60;;;20.83;;
3261;SDS011;1643;47.746;9.000;2022-12-18T02:37:01;42.33;;;21.17;;
3261;SDS011;1643;47.746;9.000;2022-12-18T02:39:29;39.20;;;19.00;;
3261;SDS011;1643;47.746;9.000;2022-12-18T02:41:58;42.83;;;19.97;;
3261;SDS011;1643;47.746;9.000;2022-12-18T02:44:24;40.57;;;21.43;;
3261;SDS011;1643;47.746;9.000;2022-12-18T02:46:50;36.10;;;20.40;;
3261;SDS011;1643;47.746;9.000;2022-12-18T02:49:40;41.23;;;20.80;;
3261;SDS011;1643;47.746;9.000;2022-12-18T02:55:04;36.67;;;18.70;;
3261;SDS011;1643;47.746;9.000;2022-12-18T02:57:43;42.53;;;21.00;;
3261;SDS011;1643;47.746;9.000;2022-12-18T03:00:52;44.00;;;19.03;;
3261;SDS011;1643;47.746;9.000;2022-12-18T03:03:39;42.50;;;20.97;;
3261;SDS011;1643;47.746;9.000;2022-12-18T03:06:12;38.20;;;18.13;;
3261;SDS011;1643;47.746;9.000;2022-12-18T03:08:47;46.77;;;21.10;;
3261;SDS011;1643;47.746;9.000;2022-12-18T03:11:16;38.23;;;18.53;;
3261;SDS011;1643;47.746;9.000;2022-12-18T03:14:01;45.33;;;19.73;;
3261;SDS011;1643;47.746;9.000;2022-12-18T03:16:28;36.60;;;18.67;;
3261;SDS011;1643;47.746;9.000;2022-12-18T03:19:04;49.97;;;23.53;;
3261;SDS011;1643;47.746;9.000;2022-12-18T03:21:47;45.23;;;20.63;;
3261;SDS011;1643;47.746;9.000;2022-12-18T03:24:17;37.47;;;17.17;;
3261;SDS011;1643;47.746;9.000;2022-12-18T03:26:45;43.73;;;21.53;;
3261;SDS011;1643;47.746;9.000;2022-12-18T03:29:16;42.23;;;19.97;;
3261;SDS011;1643;47.746;9.000;2022-12-18T03:31:49;44.80;;;21.40;;
3261;SDS011;1643;47.746;9.000;2022-12-18T03:34:21;44.00;;;21.90;;
3261;SDS011;1643;47.746;9.000;2022-12-18T03:36:52;42.40;;;19.70;;
3261;SDS011;1643;47.746;9.000;2022-12-18T03:39:18;43.67;;;21.03;;
3261;SDS011;1643;47.746;9.000;2022-12-18T03:41:51;38.73;;;18.80;;
3261;SDS011;1643;47.746;9.000;2022-12-18T03:44:29;40.27;;;19.23;;
3261;SDS011;1643;47.746;9.000;2022-12-18T03:49:56;38.37;;;20.17;;
3261;SDS011;1643;47.746;9.000;2022-12-18T03:55:12;47.30;;;21.17;;
3261;SDS011;1643;47.746;9.000;2022-12-18T03:57:37;42.13;;;20.60;;
3261;SDS011;1643;47.746;9.000;2022-12-18T04:00:05;45.00;;;19.90;;
3261;SDS011;1643;47.746;9.000;2022-12-18T04:02:34;47.30;;;21.53;;
3261;SDS011;1643;47.746;9.000;2022-12-18T04:05:03;43.63;;;21.13;;
3261;SDS011;1643;47.746;9.000;2022-12-18T04:07:31;45.37;;;20.43;;
3261;SDS011;1643;47.746;9.000;2022-12-18T04:09:58;41.00;;;20.43;;
3261;SDS011;1643;47.746;9.000;2022-12-18T04:12:26;46.37;;;21.57;;
3261;SDS011;1643;47.746;9.000;2022-12-18T04:14:54;46.47;;;21.50;;
3261;SDS011;1643;47.746;9.000;2022-12-18T04:17:20;43.87;;;22.10;;
3261;SDS011;1643;47.746;9.000;2022-12-18T04:19:46;45.80;;;20.20;;
3261;SDS011;1643;47.746;9.000;2022-12-18T04:22:12;44.43;;;20.80;;
3261;SDS011;1643;47.746;9.000;2022-12-18T04:24:38;47.70;;;21.93;;
3261;SDS011;1643;47.746;9.000;2022-12-18T04:27:03;48.97;;;21.10;;
3261;SDS011;1643;47.746;9.000;2022-12-18T04:29:29;40.67;;;18.83;;
3261;SDS011;1643;47.746;9.000;2022-12-18T04:31:55;48.60;;;21.10;;
3261;SDS011;1643;47.746;9.000;2022-12-18T04:34:21;37.67;;;17.43;;
3261;SDS011;1643;47.746;9.000;2022-12-18T04:36:46;33.80;;;18.37;;
3261;SDS011;1643;47.746;9.000;2022-12-18T04:39:12;33.83;;;16.63;;
3261;SDS011;1643;47.746;9.000;2022-12-18T04:41:38;26.73;;;13.67;;
3261;SDS011;1643;47.746;9.000;2022-12-18T04:44:04;38.13;;;18.20;;
3261;SDS011;1643;47.746;9.000;2022-12-18T04:46:30;29.00;;;15.90;;
3261;SDS011;1643;47.746;9.000;2022-12-18T04:48:55;32.30;;;15.80;;
3261;SDS011;1643;47.746;9.000;2022-12-18T04:51:21;30.13;;;16.00;;
3261;SDS011;1643;47.746;9.000;2022-12-18T04:53:47;30.93;;;15.57;;
3261;SDS011;1643;47.746;9.000;2022-12-18T04:56:13;40.47;;;17.47;;
3261;SDS011;1643;47.746;9.000;2022-12-18T04:58:40;35.53;;;15.53;;
3261;SDS011;1643;47.746;9.000;2022-12-18T05:01:08;33.03;;;16.80;;
3261;SDS011;1643;47.746;9.000;2022-12-18T05:03:35;38.07;;;16.43;;
3261;SDS011;1643;47.746;9.000;2022-12-18T05:06:02;40.47;;;18.57;;
3261;SDS011;1643;47.746;9.000;2022-12-18T05:08:28;35.30;;;17.13;;
3261;SDS011;1643;47.746;9.000;2022-12-18T05:13:27;41.13;;;17.90;;
3261;SDS011;1643;47.746;9.000;2022-12-18T05:15:53;31.27;;;15.73;;
3261;SDS011;1643;47.746;9.000;2022-12-18T05:18:19;30.70;;;14.97;;
3261;SDS011;1643;47.746;9.000;2022-12-18T05:20:44;34.17;;;16.97;;
3261;SDS011;1643;47.746;9.000;2022-12-18T05:23:10;33.87;;;16.80;;
3261;SDS011;1643;47.746;9.000;2022-12-18T05:25:36;28.60;;;15.30;;
3261;SDS011;1643;47.746;9.000;2022-12-18T05:28:02;32.03;;;15.77;;
3261;SDS011;1643;47.746;9.000;2022-12-18T05:30:28;34.57;;;16.53;;
3261;SDS011;1643;47.746;9.000;2022-12-18T05:32:53;32.60;;;15.90;;
3261;SDS011;1643;47.746;9.000;2022-12-18T05:35:19;28.63;;;15.27;;
3261;SDS011;1643;47.746;9.000;2022-12-18T05:37:45;32.10;;;15.23;;
3261;SDS011;1643;47.746;9.000;2022-12-18T05:40:11;36.53;;;17.30;;
3261;SDS011;1643;47.746;9.000;2022-12-18T05:42:37;29.80;;;15.10;;
3261;SDS011;1643;47.746;9.000;2022-12-18T05:45:02;33.93;;;14.57;;
3261;SDS011;1643;47.746;9.000;2022-12-18T05:47:29;37.87;;;14.50;;
3261;SDS011;1643;47.746;9.000;2022-12-18T05:49:54;31.70;;;14.83;;
3261;SDS011;1643;47.746;9.000;2022-12-18T05:52:20;25.97;;;12.73;;
3261;SDS011;1643;47.746;9.000;2022-12-18T05:54:46;30.67;;;15.90;;
3261;SDS011;1643;47.746;9.000;2022-12-18T05:57:11;31.23;;;15.83;;
3261;SDS011;1643;47.746;9.000;2022-12-18T05:59:37;34.90;;;14.90;;
3261;SDS011;1643;47.746;9.000;2022-12-18T06:02:02;32.97;;;16.20;;
3261;SDS011;1643;47.746;9.000;2022-12-18T06:04:28;34.47;;;16.37;;
3261;SDS011;1643;47.746;9.000;2022-12-18T06:06:54;28.40;;;14.00;;
3261;SDS011;1643;47.746;9.000;2022-12-18T06:09:20;34.53;;;16.43;;
3261;SDS011;1643;47.746;9.000;2022-12-18T06:11:45;28.60;;;14.93;;
3261;SDS011;1643;47.746;9.000;2022-12-18T06:14:11;30.53;;;16.80;;
3261;SDS011;1643;47.746;9.000;2022-12-18T06:16:36;29.07;;;14.50;;
3261;SDS011;1643;47.746;9.000;2022-12-18T06:19:03;29.17;;;14.40;;
3261;SDS011;1643;47.746;9.000;2022-12-18T06:21:30;26.50;;;12.10;;
3261;SDS011;1643;47.746;9.000;2022-12-18T06:23:56;31.23;;;15.43;;
3261;SDS011;1643;47.746;9.000;2022-12-18T06:26:22;30.23;;;15.50;;
3261;SDS011;1643;47.746;9.000;2022-12-18T06:28:48;28.00;;;14.80;;
3261;SDS011;1643;47.746;9.000;2022-12-18T06:31:14;30.50;;;14.10;;
3261;SDS011;1643;47.746;9.000;2022-12-18T06:33:40;29.53;;;14.73;;
3261;SDS011;1643;47.746;9.000;2022-12-18T06:36:07;30.80;;;14.27;;
3261;SDS011;1643;47.746;9.000;2022-12-18T06:38:35;31.97;;;15.30;;
3261;SDS011;1643;47.746;9.000;2022-12-18T06:41:06;35.30;;;15.97;;
3261;SDS011;1643;47.746;9.000;2022-12-18T06:43:34;35.10;;;15.90;;
3261;SDS011;1643;47.746;9.000;2022-12-18T06:46:01;27.13;;;14.10;;
3261;SDS011;1643;47.746;9.000;2022-12-18T06:48:28;31.30;;;14.70;;
3261;SDS011;1643;47.746;9.000;2022-12-18T06:50:54;37.83;;;17.47;;
3261;SDS011;1643;47.746;9.000;2022-12-18T06:53:20;34.20;;;16.80;;
3261;SDS011;1643;47.746;9.000;2022-12-18T06:55:45;43.20;;;17.63;;
3261;SDS011;1643;47.746;9.000;2022-12-18T06:58:11;35.73;;;16.90;;
3261;SDS011;1643;47.746;9.000;2022-12-18T07:00:36;31.70;;;16.30;;
3261;SDS011;1643;47.746;9.000;2022-12-18T07:03:02;38.83;;;17.30;;
3261;SDS011;1643;47.746;9.000;2022-12-18T07:05:28;39.33;;;18.73;;
3261;SDS011;1643;47.746;9.000;2022-12-18T07:07:53;32.83;;;17.73;;
3261;SDS011;1643;47.746;9.000;2022-12-18T07:10:19;35.07;;;16.47;;
3261;SDS011;1643;47.746;9.000;2022-12-18T07:12:44;36.83;;;18.07;;
3261;SDS011;1643;47.746;9.000;2022-12-18T07:15:11;35.13;;;17.50;;
3261;SDS011;1643;47.746;9.000;2022-12-18T07:17:36;38.43;;;17.53;;
3261;SDS011;1643;47.746;9.000;2022-12-18T07:20:02;42.43;;;18.87;;
3261;SDS011;1643;47.746;9.000;2022-12-18T07:22:28;36.67;;;17.10;;
3261;SDS011;1643;47.746;9.000;2022-12-18T07:24:54;35.20;;;19.07;;
3261;SDS011;1643;47.746;9.000;2022-12-18T07:27:20;30.57;;;15.47;;
3261;SDS011;1643;47.746;9.000;2022-12-18T07:29:46;36.93;;;17.47;;
3261;SDS011;1643;47.746;9.000;2022-12-18T07:32:11;36.90;;;17.50;;
3261;SDS011;1643;47.746;9.000;2022-12-18T07:34:37;37.63;;;17.00;;
3261;SDS011;1643;47.746;9.000;2022-12-18T07:37:03;35.83;;;18.80;;
3261;SDS011;1643;47.746;9.000;2022-12-18T07:39:29;39.07;;;17.20;;
3261;SDS011;1643;47.746;9.000;2022-12-18T07:41:55;34.40;;;18.10;;
3261;SDS011;1643;47.746;9.000;2022-12-18T07:44:39;32.10;;;16.20;;
3261;SDS011;1643;47.746;9.000;2022-12-18T07:47:04;34.90;;;18.27;;
3261;SDS011;1643;47.746;9.000;2022-12-18T07:49:30;37.40;;;18.87;;
3261;SDS011;1643;47.746;9.000;2022-12-18T07:51:55;41.73;;;19.70;;
3261;SDS011;1643;47.746;9.000;2022-12-18T07:54:22;37.23;;;18.17;;
3261;SDS011;1643;47.746;9.000;2022-12-18T07:56:49;32.63;;;16.13;;
3261;SDS011;1643;47.746;9.000;2022-12-18T07:59:15;36.57;;;17.63;;
3261;SDS011;1643;47.746;9.000;2022-12-18T08:01:40;43.13;;;19.70;;
3261;SDS011;1643;47.746;9.000;2022-12-18T08:04:06;37.93;;;19.57;;
3261;SDS011;1643;47.746;9.000;2022-12-18T08:06:32;40.53;;;19.60;;
3261;SDS011;1643;47.746;9.000;2022-12-18T08:08:57;39.27;;;18.73;;
3261;SDS011;1643;47.746;9.000;2022-12-18T08:11:24;44.87;;;20.87;;
3261;SDS011;1643;47.746;9.000;2022-12-18T08:13:51;35.90;;;20.03;;
3261;SDS011;1643;47.746;9.000;2022-12-18T08:16:17;37.00;;;17.10;;
3261;SDS011;1643;47.746;9.000;2022-12-18T08:18:43;33.93;;;16.73;;
3261;SDS011;1643;47.746;9.000;2022-12-18T08:21:09;42.33;;;17.90;;
3261;SDS011;1643;47.746;9.000;2022-12-18T08:23:35;29.60;;;16.80;;
3261;SDS011;1643;47.746;9.000;2022-12-18T08:26:01;33.47;;;17.30;;
3261;SDS011;1643;47.746;9.000;2022-12-18T08:28:27;31.80;;;16.33;;
3261;SDS011;1643;47.746;9.000;2022-12-18T08:30:52;36.83;;;19.33;;
3261;SDS011;1643;47.746;9.000;2022-12-18T08:33:18;45.63;;;21.23;;
3261;SDS011;1643;47.746;9.000;2022-12-18T08:35:44;36.53;;;20.13;;
3261;SDS011;1643;47.746;9.000;2022-12-18T08:38:09;35.43;;;20.03;;
3261;SDS011;1643;47.746;9.000;2022-12-18T08:40:35;35.77;;;18.60;;
3261;SDS011;1643;47.746;9.000;2022-12-18T08:43:01;34.10;;;16.30;;
3261;SDS011;1643;47.746;9.000;2022-12-18T08:45:45;36.67;;;18.17;;
3261;SDS011;1643;47.746;9.000;2022-12-18T08:48:10;33.03;;;16.20;;
3261;SDS011;1643;47.746;9.000;2022-12-18T08:50:36;38.80;;;18.03;;
3261;SDS011;1643;47.746;9.000;2022-12-18T08:53:02;38.50;;;17.47;;
3261;SDS011;1643;47.746;9.000;2022-12-18T08:55:27;39.30;;;20.70;;
3261;SDS011;1643;47.746;9.000;2022-12-18T08:57:53;43.83;;;18.70;;
3261;SDS011;1643;47.746;9.000;2022-12-18T09:00:19;43.60;;;20.30;;
3261;SDS011;1643;47.746;9.000;2022-12-18T09:02:45;37.93;;;19.30;;
3261;SDS011;1643;47.746;9.000;2022-12-18T09:05:10;39.30;;;18.63;;
3261;SDS011;1643;47.746;9.000;2022-12-18T09:07:36;35.27;;;19.63;;
3261;SDS011;1643;47.746;9.000;2022-12-18T09:10:02;33.80;;;16.80;;
3261;SDS011;1643;47.746;9.000;2022-12-18T09:12:28;41.30;;;20.67;;
3261;SDS011;1643;47.746;9.000;2022-12-18T09:14:54;44.63;;;21.40;;
3261;SDS011;1643;47.746;9.000;2022-12-18T09:17:21;42.63;;;17.87;;
3261;SDS011;1643;47.746;9.000;2022-12-18T09:19:47;35.93;;;19.50;;
3261;SDS011;1643;47.746;9.000;2022-12-18T09:22:12;42.87;;;20.00;;
3261;SDS011;1643;47.746;9.000;2022-12-18T09:24:38;41.53;;;19.80;;
3261;SDS011;1643;47.746;9.000;2022-12-18T09:27:03;36.50;;;19.50;;
3261;SDS011;1643;47.746;9.000;2022-12-18T09:29:29;39.73;;;19.87;;
3261;SDS011;1643;47.746;9.000;2022-12-18T09:31:55;35.80;;;18.67;;
3261;SDS011;1643;47.746;9.000;2022-12-18T09:34:21;41.70;;;18.37;;
3261;SDS011;1643;47.746;9.000;2022-12-18T09:36:47;41.10;;;17.57;;
3261;SDS011;1643;47.746;9.000;2022-12-18T09:39:13;30.77;;;16.03;;
3261;SDS011;1643;47.746;9.000;2022-12-18T09:41:50;33.10;;;15.90;;
3261;SDS011;1643;47.746;9.000;2022-12-18T09:47:51;33.67;;;16.30;;
3261;SDS011;1643;47.746;9.000;2022-12-18T09:49:58;43.80;;;19.03;;
3261;SDS011;1643;47.746;9.000;2022-12-18T09:52:34;44.97;;;24.17;;
3261;SDS011;1643;47.746;9.000;2022-12-18T09:57:45;52.30;;;25.10;;
3261;SDS011;1643;47.746;9.000;2022-12-18T10:00:16;36.53;;;17.50;;
3261;SDS011;1643;47.746;9.000;2022-12-18T10:02:45;36.27;;;17.60;;
3261;SDS011;1643;47.746;9.000;2022-12-18T10:05:12;37.73;;;17.17;;
3261;SDS011;1643;47.746;9.000;2022-12-18T10:07:50;32.27;;;15.60;;
3261;SDS011;1643;47.746;9.000;2022-12-18T10:29:40;34.07;;;16.70;;
3261;SDS011;1643;47.746;9.000;2022-12-18T10:32:08;35.33;;;14.93;;
3261;SDS011;1643;47.746;9.000;2022-12-18T10:34:45;33.63;;;15.67;;
3261;SDS011;1643;47.746;9.000;2022-12-18T10:37:19;29.20;;;15.30;;
3261;SDS011;1643;47.746;9.000;2022-12-18T10:39:47;35.17;;;18.03;;
3261;SDS011;1643;47.746;9.000;2022-12-18T10:42:32;47.53;;;25.13;;
3261;SDS011;1643;47.746;9.000;2022-12-18T10:45:02;37.10;;;18.17;;
3261;SDS011;1643;47.746;9.000;2022-12-18T10:47:41;36.47;;;17.43;;
3261;SDS011;1643;47.746;9.000;2022-12-18T10:50:20;41.43;;;17.00;;
3261;SDS011;1643;47.746;9.000;2022-12-18T10:52:58;34.73;;;19.47;;
3261;SDS011;1643;47.746;9.000;2022-12-18T10:55:27;31.90;;;15.47;;
3261;SDS011;1643;47.746;9.000;2022-12-18T10:58:21;33.60;;;16.50;;
3261;SDS011;1643;47.746;9.000;2022-12-18T11:01:09;36.20;;;16.23;;
3261;SDS011;1643;47.746;9.000;2022-12-18T11:06:17;33.53;;;16.50;;
3261;SDS011;1643;47.746;9.000;2022-12-18T11:09:23;35.50;;;16.80;;
3261;SDS011;1643;47.746;9.000;2022-12-18T11:11:48;30.03;;;16.30;;
3261;SDS011;1643;47.746;9.000;2022-12-18T11:15:02;32.53;;;16.20;;
3261;SDS011;1643;47.746;9.000;2022-12-18T11:17:19;31.57;;;16.00;;
3261;SDS011;1643;47.746;9.000;2022-12-18T11:20:05;30.67;;;15.27;;
3261;SDS011;1643;47.746;9.000;2022-12-18T11:23:03;32.63;;;15.30;;
3261;SDS011;1643;47.746;9.000;2022-12-18T11:25:30;29.63;;;14.90;;
3261;SDS011;1643;47.746;9.000;2022-12-18T11:28:02;26.10;;;14.93;;
3261;SDS011;1643;47.746;9.000;2022-12-18T11:30:34;31.67;;;15.23;;
3261;SDS011;1643;47.746;9.000;2022-12-18T11:33:05;32.07;;;14.03;;
3261;SDS011;1643;47.746;9.000;2022-12-18T11:38:06;26.93;;;13.67;;
3261;SDS011;1643;47.746;9.000;2022-12-18T11:40:42;25.80;;;12.77;;
3261;SDS011;1643;47.746;9.000;2022-12-18T11:43:13;27.97;;;15.07;;
3261;SDS011;1643;47.746;9.000;2022-12-18T11:45:49;28.63;;;16.17;;
3261;SDS011;1643;47.746;9.000;2022-12-18T11:48:23;42.37;;;20.20;;
3261;SDS011;1643;47.746;9.000;2022-12-18T11:50:54;40.50;;;19.77;;
3261;SDS011;1643;47.746;9.000;2022-12-18T11:53:21;29.30;;;16.93;;
3261;SDS011;1643;47.746;9.000;2022-12-18T11:55:50;29.33;;;15.70;;
3261;SDS011;1643;47.746;9.000;2022-12-18T12:01:03;32.93;;;16.50;;
3261;SDS011;1643;47.746;9.000;2022-12-18T12:16:59;31.40;;;14.50;;
3261;SDS011;1643;47.746;9.000;2022-12-18T12:22:22;37.00;;;18.80;;
3261;SDS011;1643;47.746;9.000;2022-12-18T12:27:54;41.93;;;24.47;;
3261;SDS011;1643;47.746;9.000;2022-12-18T12:38:24;30.83;;;16.27;;
3261;SDS011;1643;47.746;9.000;2022-12-18T12:41:09;35.40;;;16.27;;
3261;SDS011;1643;47.746;9.000;2022-12-18T12:43:57;31.97;;;15.97;;
3261;SDS011;1643;47.746;9.000;2022-12-18T12:46:26;32.53;;;16.13;;
3261;SDS011;1643;47.746;9.000;2022-12-18T12:48:58;28.93;;;14.13;;
3261;SDS011;1643;47.746;9.000;2022-12-18T12:51:32;33.80;;;16.93;;
3261;SDS011;1643;47.746;9.000;2022-12-18T12:53:59;36.00;;;18.23;;
3261;SDS011;1643;47.746;9.000;2022-12-18T12:56:30;28.50;;;16.37;;
3261;SDS011;1643;47.746;9.000;2022-12-18T12:59:22;34.60;;;17.10;;
3261;SDS011;1643;47.746;9.000;2022-12-18T13:01:54;34.90;;;16.63;;
3261;SDS011;1643;47.746;9.000;2022-12-18T13:04:27;30.33;;;14.83;;
3261;SDS011;1643;47.746;9.000;2022-12-18T13:07:14;36.93;;;17.10;;
3261;SDS011;1643;47.746;9.000;2022-12-18T13:15:22;33.57;;;16.57;;
3261;SDS011;1643;47.746;9.000;2022-12-18T13:25:52;31.30;;;16.70;;
3261;SDS011;1643;47.746;9.000;2022-12-18T13:31:08;29.23;;;15.20;;
3261;SDS011;1643;47.746;9.000;2022-12-18T13:36:12;35.03;;;17.53;;
3261;SDS011;1643;47.746;9.000;2022-12-18T13:38:38;38.87;;;20.00;;
3261;SDS011;1643;47.746;9.000;2022-12-18T13:43:50;42.03;;;18.23;;
3261;SDS011;1643;47.746;9.000;2022-12-18T13:51:31;29.10;;;16.90;;
3261;SDS011;1643;47.746;9.000;2022-12-18T13:53:59;38.73;;;17.40;;
3261;SDS011;1643;47.746;9.000;2022-12-18T13:56:29;34.73;;;17.33;;
3261;SDS011;1643;47.746;9.000;2022-12-18T13:59:32;30.67;;;15.53;;
3261;SDS011;1643;47.746;9.000;2022-12-18T14:01:56;31.13;;;17.63;;
3261;SDS011;1643;47.746;9.000;2022-12-18T14:04:24;29.87;;;15.60;;
3261;SDS011;1643;47.746;9.000;2022-12-18T14:06:54;26.70;;;13.83;;
3261;SDS011;1643;47.746;9.000;2022-12-18T14:09:28;32.23;;;16.40;;
3261;SDS011;1643;47.746;9.000;2022-12-18T14:11:56;30.00;;;15.20;;
3261;SDS011;1643;47.746;9.000;2022-12-18T14:14:46;30.03;;;16.60;;
3261;SDS011;1643;47.746;9.000;2022-12-18T14:17:14;34.73;;;16.20;;
3261;SDS011;1643;47.746;9.000;2022-12-18T14:19:41;31.37;;;15.40;;
3261;SDS011;1643;47.746;9.000;2022-12-18T14:22:13;35.60;;;14.70;;
3261;SDS011;1643;47.746;9.000;2022-12-18T14:24:42;30.10;;;14.73;;
3261;SDS011;1643;47.746;9.000;2022-12-18T14:27:21;36.13;;;17.30;;
3261;SDS011;1643;47.746;9.000;2022-12-18T14:29:50;38.03;;;19.90;;
3261;SDS011;1643;47.746;9.000;2022-12-18T14:32:17;35.03;;;17.67;;
3261;SDS011;1643;47.746;9.000;2022-12-18T14:34:51;36.73;;;17.67;;
3261;SDS011;1643;47.746;9.000;2022-12-18T14:37:22;35.10;;;16.20;;
3261;SDS011;1643;47.746;9.000;2022-12-18T14:40:11;31.40;;;15.80;;
3261;SDS011;1643;47.746;9.000;2022-12-18T14:42:38;27.07;;;15.33;;
3261;SDS011;1643;47.746;9.000;2022-12-18T14:48:12;35.00;;;16.80;;
3261;SDS011;1643;47.746;9.000;2022-12-18T14:50:39;33.00;;;17.10;;
3261;SDS011;1643;47.746;9.000;2022-12-18T14:53:05;34.37;;;15.67;;
3261;SDS011;1643;47.746;9.000;2022-12-18T14:55:30;31.80;;;16.13;;
3261;SDS011;1643;47.746;9.000;2022-12-18T14:57:56;34.33;;;16.40;;
3261;SDS011;1643;47.746;9.000;2022-12-18T15:00:23;35.00;;;16.20;;
3261;SDS011;1643;47.746;9.000;2022-12-18T15:02:52;32.80;;;15.87;;
3261;SDS011;1643;47.746;9.000;2022-12-18T15:05:21;35.30;;;16.50;;
3261;SDS011;1643;47.746;9.000;2022-12-18T15:07:58;39.13;;;16.33;;
3261;SDS011;1643;47.746;9.000;2022-12-18T15:20:33;35.93;;;17.80;;
3261;SDS011;1643;47.746;9.000;2022-12-18T15:23:15;28.47;;;15.53;;
3261;SDS011;1643;47.746;9.000;2022-12-18T15:25:45;27.50;;;14.30;;
3261;SDS011;1643;47.746;9.000;2022-12-18T15:28:57;35.10;;;16.23;;
3261;SDS011;1643;47.746;9.000;2022-12-18T15:33:40;32.50;;;15.80;;
3261;SDS011;1643;47.746;9.000;2022-12-18T15:36:24;34.40;;;16.70;;
3261;SDS011;1643;47.746;9.000;2022-12-18T15:38:51;34.00;;;16.70;;
3261;SDS011;1643;47.746;9.000;2022-12-18T15:41:18;38.67;;;19.50;;
3261;SDS011;1643;47.746;9.000;2022-12-18T15:43:46;37.20;;;17.47;;
3261;SDS011;1643;47.746;9.000;2022-12-18T15:46:17;35.30;;;16.57;;
3261;SDS011;1643;47.746;9.000;2022-12-18T15:48:51;35.30;;;17.17;;
3261;SDS011;1643;47.746;9.000;2022-12-18T15:51:31;34.67;;;16.13;;
3261;SDS011;1643;47.746;9.000;2022-12-18T15:54:00;40.60;;;18.73;;
3261;SDS011;1643;47.746;9.000;2022-12-18T15:56:28;31.50;;;14.93;;
3261;SDS011;1643;47.746;9.000;2022-12-18T15:59:14;37.10;;;15.73;;
3261;SDS011;1643;47.746;9.000;2022-12-18T16:01:42;39.33;;;17.53;;
3261;SDS011;1643;47.746;9.000;2022-12-18T16:04:11;36.90;;;18.40;;
3261;SDS011;1643;47.746;9.000;2022-12-18T16:06:39;34.83;;;17.20;;
3261;SDS011;1643;47.746;9.000;2022-12-18T16:09:06;32.20;;;16.90;;
3261;SDS011;1643;47.746;9.000;2022-12-18T16:11:32;31.00;;;14.90;;
3261;SDS011;1643;47.746;9.000;2022-12-18T16:14:22;33.67;;;15.00;;
3261;SDS011;1643;47.746;9.000;2022-12-18T16:16:52;31.00;;;15.43;;
3261;SDS011;1643;47.746;9.000;2022-12-18T16:19:19;28.10;;;14.50;;
3261;SDS011;1643;47.746;9.000;2022-12-18T16:21:48;36.30;;;18.13;;
3261;SDS011;1643;47.746;9.000;2022-12-18T16:24:33;38.70;;;18.90;;
3261;SDS011;1643;47.746;9.000;2022-12-18T16:27:01;42.50;;;19.00;;
3261;SDS011;1643;47.746;9.000;2022-12-18T16:29:27;31.87;;;14.83;;
3261;SDS011;1643;47.746;9.000;2022-12-18T16:31:54;33.40;;;14.63;;
3261;SDS011;1643;47.746;9.000;2022-12-18T16:34:21;33.77;;;17.87;;
3261;SDS011;1643;47.746;9.000;2022-12-18T16:36:51;34.93;;;15.80;;
3261;SDS011;1643;47.746;9.000;2022-12-18T16:39:18;32.90;;;14.37;;
3261;SDS011;1643;47.746;9.000;2022-12-18T16:41:44;35.57;;;16.53;;
3261;SDS011;1643;47.746;9.000;2022-12-18T16:44:09;25.47;;;13.03;;
3261;SDS011;1643;47.746;9.000;2022-12-18T16:46:35;35.30;;;17.00;;
3261;SDS011;1643;47.746;9.000;2022-12-18T16:49:02;38.47;;;18.73;;
3261;SDS011;1643;47.746;9.000;2022-12-18T16:51:28;35.13;;;17.00;;
3261;SDS011;1643;47.746;9.000;2022-12-18T16:53:54;43.40;;;18.60;;
3261;SDS011;1643;47.746;9.000;2022-12-18T16:56:23;33.63;;;17.10;;
3261;SDS011;1643;47.746;9.000;2022-12-18T16:58:53;37.67;;;18.00;;
3261;SDS011;1643;47.746;9.000;2022-12-18T17:01:20;35.77;;;15.93;;
3261;SDS011;1643;47.746;9.000;2022-12-18T17:04:02;33.67;;;15.80;;
3261;SDS011;1643;47.746;9.000;2022-12-18T17:06:30;28.00;;;15.67;;
3261;SDS011;1643;47.746;9.000;2022-12-18T17:08:58;32.70;;;14.30;;
3261;SDS011;1643;47.746;9.000;2022-12-18T17:11:26;33.50;;;16.33;;
3261;SDS011;1643;47.746;9.000;2022-12-18T17:13:53;32.70;;;16.80;;